AAL3014 KSMF-KPHX
Flight info
| Callsign | AAL3014 |
|---|---|
| Flight time | N/A |
| Altitude | 37000 |
| Route | SCTWN4 SHUFL Q13 WOTRO BRUSR1 |
| Aircraft | B38M/M-SDE1FGHILORVWXY/HB1 |
Departure
| Time | 2026-05-08 02:28 |
|---|---|
| Airport | Sacramento International Airport (KSMF) |
Arrival
| Time | N/A |
|---|---|
| Airport | Phoenix Sky Harbor International Airport (KPHX) |
| Time | Latitude | Longitude | Altitude | Speed | Heading |
|---|---|---|---|---|---|
| 2026-05-08 02:04 | 38.69502 | -121.58811 | 31 ft | 0 kts | 180° |
| 2026-05-08 02:18 | 38.69517 | -121.58810 | 31 ft | 4 kts | 182° |
| 2026-05-08 02:18 | 38.69544 | -121.58808 | 31 ft | 4 kts | 186° |
| 2026-05-08 02:18 | 38.69570 | -121.58803 | 31 ft | 4 kts | 193° |
| 2026-05-08 02:19 | 38.69596 | -121.58793 | 31 ft | 4 kts | 205° |
| 2026-05-08 02:19 | 38.69616 | -121.58774 | 31 ft | 4 kts | 244° |
| 2026-05-08 02:19 | 38.69619 | -121.58761 | 31 ft | 0 kts | 271° |
| 2026-05-08 02:21 | 38.69619 | -121.58762 | 31 ft | 1 kts | 271° |
| 2026-05-08 02:21 | 38.69619 | -121.58809 | 31 ft | 11 kts | 270° |
| 2026-05-08 02:21 | 38.69631 | -121.58900 | 31 ft | 10 kts | 315° |
| 2026-05-08 02:22 | 38.69706 | -121.58916 | 31 ft | 13 kts | 0° |
| 2026-05-08 02:22 | 38.69768 | -121.58970 | 31 ft | 13 kts | 275° |
| 2026-05-08 02:22 | 38.69769 | -121.59098 | 31 ft | 16 kts | 270° |
| 2026-05-08 02:22 | 38.69770 | -121.59250 | 31 ft | 18 kts | 270° |
| 2026-05-08 02:23 | 38.69773 | -121.59419 | 31 ft | 20 kts | 272° |
| 2026-05-08 02:23 | 38.69774 | -121.59604 | 31 ft | 22 kts | 269° |
| 2026-05-08 02:23 | 38.69775 | -121.59786 | 31 ft | 13 kts | 270° |
| 2026-05-08 02:23 | 38.69812 | -121.59862 | 31 ft | 10 kts | 351° |
| 2026-05-08 02:24 | 38.69892 | -121.59861 | 31 ft | 13 kts | 1° |
| 2026-05-08 02:24 | 38.69993 | -121.59859 | 31 ft | 17 kts | 1° |
| 2026-05-08 02:24 | 38.70123 | -121.59857 | 31 ft | 20 kts | 1° |
| 2026-05-08 02:24 | 38.70267 | -121.59854 | 31 ft | 22 kts | 0° |
| 2026-05-08 02:25 | 38.70424 | -121.59853 | 31 ft | 23 kts | 0° |
| 2026-05-08 02:25 | 38.70593 | -121.59850 | 31 ft | 24 kts | 1° |
| 2026-05-08 02:25 | 38.70703 | -121.59858 | 31 ft | 11 kts | 326° |
| 2026-05-08 02:25 | 38.70722 | -121.59945 | 31 ft | 11 kts | 270° |
| 2026-05-08 02:26 | 38.70721 | -121.60050 | 30 ft | 10 kts | 264° |
| 2026-05-08 02:26 | 38.70694 | -121.60105 | 30 ft | 6 kts | 205° |
| 2026-05-08 02:26 | 38.70666 | -121.60110 | 31 ft | 3 kts | 181° |
| 2026-05-08 02:26 | 38.70665 | -121.60110 | 31 ft | 0 kts | 181° |
| 2026-05-08 02:27 | 38.70625 | -121.60111 | 31 ft | 22 kts | 180° |
| 2026-05-08 02:27 | 38.70209 | -121.60118 | 34 ft | 96 kts | 180° |
| 2026-05-08 02:27 | 38.69339 | -121.60133 | 32 ft | 155 kts | 180° |
| 2026-05-08 02:27 | 38.68172 | -121.60155 | 399 ft | 178 kts | 181° |
| 2026-05-08 02:28 | 38.66894 | -121.60206 | 1081 ft | 186 kts | 182° |
| 2026-05-08 02:28 | 38.65608 | -121.60214 | 1920 ft | 192 kts | 181° |
| 2026-05-08 02:28 | 38.64176 | -121.60226 | 2352 ft | 220 kts | 181° |
| 2026-05-08 02:28 | 38.62572 | -121.59977 | 2837 ft | 247 kts | 157° |
| 2026-05-08 02:29 | 38.61214 | -121.58529 | 3427 ft | 268 kts | 122° |
| 2026-05-08 02:29 | 38.60742 | -121.56257 | 4401 ft | 270 kts | 88° |
| 2026-05-08 02:29 | 38.61212 | -121.53899 | 5239 ft | 280 kts | 71° |
| 2026-05-08 02:29 | 38.61760 | -121.51484 | 6154 ft | 284 kts | 75° |
| 2026-05-08 02:30 | 38.62270 | -121.49027 | 7068 ft | 288 kts | 76° |
| 2026-05-08 02:30 | 38.62776 | -121.46522 | 7898 ft | 294 kts | 78° |
| 2026-05-08 02:30 | 38.62828 | -121.43925 | 8837 ft | 295 kts | 101° |
| 2026-05-08 02:30 | 38.62442 | -121.41318 | 9637 ft | 303 kts | 101° |
| 2026-05-08 02:31 | 38.62060 | -121.38638 | 10392 ft | 311 kts | 101° |
| 2026-05-08 02:31 | 38.61650 | -121.35838 | 10832 ft | 330 kts | 102° |
| 2026-05-08 02:31 | 38.61206 | -121.32868 | 11171 ft | 350 kts | 102° |
| 2026-05-08 02:31 | 38.60734 | -121.29749 | 11572 ft | 367 kts | 102° |
| 2026-05-08 02:32 | 38.60240 | -121.26507 | 12181 ft | 374 kts | 102° |
| 2026-05-08 02:32 | 38.59741 | -121.23242 | 12950 ft | 377 kts | 102° |
| 2026-05-08 02:32 | 38.59234 | -121.19930 | 13670 ft | 381 kts | 102° |
| 2026-05-08 02:32 | 38.58721 | -121.16593 | 14380 ft | 384 kts | 102° |
| 2026-05-08 02:33 | 38.58205 | -121.13233 | 15070 ft | 387 kts | 102° |
| 2026-05-08 02:33 | 38.57689 | -121.09889 | 15746 ft | 390 kts | 101° |
| 2026-05-08 02:33 | 38.57155 | -121.06434 | 16421 ft | 393 kts | 101° |
| 2026-05-08 02:33 | 38.56621 | -121.02988 | 17069 ft | 397 kts | 101° |
| 2026-05-08 02:34 | 38.56092 | -120.99579 | 17706 ft | 400 kts | 101° |
| 2026-05-08 02:34 | 38.55549 | -120.96081 | 18324 ft | 404 kts | 101° |
| 2026-05-08 02:34 | 38.54999 | -120.92552 | 18903 ft | 407 kts | 101° |
| 2026-05-08 02:34 | 38.54443 | -120.88994 | 19448 ft | 410 kts | 101° |
| 2026-05-08 02:35 | 38.53875 | -120.85364 | 19995 ft | 413 kts | 101° |
| 2026-05-08 02:35 | 38.53316 | -120.81799 | 20526 ft | 416 kts | 101° |
| 2026-05-08 02:35 | 38.52744 | -120.78159 | 21057 ft | 420 kts | 102° |
| 2026-05-08 02:35 | 38.52167 | -120.74495 | 21575 ft | 423 kts | 102° |
| 2026-05-08 02:36 | 38.51584 | -120.70799 | 22098 ft | 426 kts | 102° |
| 2026-05-08 02:36 | 38.50998 | -120.67093 | 22596 ft | 429 kts | 102° |
| 2026-05-08 02:36 | 38.50404 | -120.63341 | 23093 ft | 432 kts | 102° |
| 2026-05-08 02:36 | 38.49804 | -120.59565 | 23588 ft | 436 kts | 102° |
| 2026-05-08 02:37 | 38.49200 | -120.55766 | 24019 ft | 439 kts | 102° |
| 2026-05-08 02:37 | 38.48589 | -120.51936 | 24439 ft | 441 kts | 102° |
| 2026-05-08 02:37 | 38.47974 | -120.48092 | 24883 ft | 443 kts | 102° |
| 2026-05-08 02:37 | 38.47355 | -120.44225 | 25296 ft | 446 kts | 102° |
| 2026-05-08 02:38 | 38.46731 | -120.40341 | 25707 ft | 448 kts | 102° |
| 2026-05-08 02:38 | 38.46318 | -120.37770 | 26000 ft | 450 kts | 102° |
| 2026-05-08 02:38 | 38.45684 | -120.33836 | 26324 ft | 455 kts | 102° |
| 2026-05-08 02:38 | 38.45044 | -120.29878 | 26709 ft | 457 kts | 102° |
| 2026-05-08 02:39 | 38.44402 | -120.25902 | 27155 ft | 459 kts | 102° |
| 2026-05-08 02:39 | 38.43755 | -120.21910 | 27571 ft | 460 kts | 102° |
| 2026-05-08 02:39 | 38.43093 | -120.17905 | 27914 ft | 463 kts | 102° |
| 2026-05-08 02:39 | 38.42422 | -120.13873 | 28251 ft | 467 kts | 102° |
| 2026-05-08 02:40 | 38.41747 | -120.09815 | 28671 ft | 468 kts | 102° |
| 2026-05-08 02:40 | 38.41070 | -120.05758 | 29006 ft | 471 kts | 102° |
| 2026-05-08 02:40 | 38.40385 | -120.01658 | 29357 ft | 474 kts | 102° |
| 2026-05-08 02:40 | 38.39694 | -119.97534 | 29687 ft | 477 kts | 102° |
| 2026-05-08 02:41 | 38.38998 | -119.93386 | 30082 ft | 479 kts | 102° |
| 2026-05-08 02:41 | 38.38299 | -119.89235 | 30420 ft | 480 kts | 102° |
| 2026-05-08 02:41 | 38.37596 | -119.85070 | 30760 ft | 481 kts | 102° |
| 2026-05-08 02:41 | 38.36893 | -119.80909 | 31162 ft | 480 kts | 102° |
| 2026-05-08 02:42 | 38.36187 | -119.76748 | 31531 ft | 481 kts | 102° |
| 2026-05-08 02:42 | 38.35484 | -119.72606 | 31955 ft | 479 kts | 102° |
| 2026-05-08 02:42 | 38.34779 | -119.68461 | 32337 ft | 479 kts | 102° |
| 2026-05-08 02:42 | 38.34071 | -119.64311 | 32696 ft | 479 kts | 102° |
| 2026-05-08 02:43 | 38.33362 | -119.60169 | 33093 ft | 478 kts | 102° |
| 2026-05-08 02:43 | 38.32664 | -119.56093 | 33510 ft | 477 kts | 102° |
| 2026-05-08 02:43 | 38.31956 | -119.51972 | 33906 ft | 476 kts | 102° |
| 2026-05-08 02:43 | 38.31248 | -119.47853 | 34225 ft | 476 kts | 102° |
| 2026-05-08 02:44 | 38.30540 | -119.43752 | 34562 ft | 475 kts | 102° |
| 2026-05-08 02:44 | 38.29831 | -119.39652 | 34920 ft | 474 kts | 102° |
| 2026-05-08 02:44 | 38.29121 | -119.35554 | 35201 ft | 474 kts | 102° |
| 2026-05-08 02:44 | 38.28409 | -119.31459 | 35470 ft | 474 kts | 102° |
| 2026-05-08 02:45 | 38.27697 | -119.27361 | 35749 ft | 474 kts | 102° |
| 2026-05-08 02:45 | 38.26983 | -119.23269 | 36042 ft | 473 kts | 102° |
| 2026-05-08 02:45 | 38.26270 | -119.19190 | 36335 ft | 472 kts | 102° |
| 2026-05-08 02:45 | 38.25555 | -119.15111 | 36590 ft | 472 kts | 102° |
| 2026-05-08 02:46 | 38.24842 | -119.11050 | 36849 ft | 472 kts | 102° |
| 2026-05-08 02:46 | 38.24126 | -119.06980 | 37042 ft | 472 kts | 102° |
| 2026-05-08 02:46 | 38.22695 | -118.98864 | 37005 ft | 469 kts | 102° |
| 2026-05-08 02:47 | 38.21261 | -118.90770 | 37021 ft | 469 kts | 102° |
| 2026-05-08 02:47 | 38.19822 | -118.82696 | 36998 ft | 468 kts | 102° |
| 2026-05-08 02:48 | 38.18379 | -118.74632 | 36991 ft | 469 kts | 102° |
| 2026-05-08 02:48 | 38.16930 | -118.66563 | 36986 ft | 468 kts | 102° |
| 2026-05-08 02:49 | 38.15471 | -118.58476 | 36986 ft | 470 kts | 102° |
| 2026-05-08 02:49 | 38.14010 | -118.50410 | 36976 ft | 469 kts | 102° |
| 2026-05-08 02:50 | 38.12540 | -118.42329 | 36962 ft | 468 kts | 103° |
| 2026-05-08 02:50 | 38.11075 | -118.34298 | 36963 ft | 467 kts | 102° |
| 2026-05-08 02:51 | 38.10177 | -118.30325 | 36931 ft | 469 kts | 114° |
| 2026-05-08 02:51 | 38.08590 | -118.26717 | 36965 ft | 469 kts | 122° |
| 2026-05-08 02:51 | 38.05181 | -118.19620 | 36950 ft | 472 kts | 122° |
| 2026-05-08 02:52 | 38.01701 | -118.12555 | 36938 ft | 472 kts | 122° |
| 2026-05-08 02:52 | 37.98219 | -118.05554 | 36936 ft | 467 kts | 122° |
| 2026-05-08 02:53 | 37.94765 | -117.98631 | 36934 ft | 469 kts | 122° |
| 2026-05-08 02:53 | 37.91282 | -117.91664 | 36927 ft | 469 kts | 122° |
| 2026-05-08 02:54 | 37.87788 | -117.84692 | 36924 ft | 469 kts | 122° |
| 2026-05-08 02:54 | 37.84297 | -117.77739 | 36911 ft | 467 kts | 122° |
| 2026-05-08 02:55 | 37.79041 | -117.67375 | 36907 ft | 467 kts | 127° |
| 2026-05-08 02:55 | 37.76789 | -117.64438 | 36902 ft | 465 kts | 142° |
| 2026-05-08 02:56 | 37.74260 | -117.61889 | 36897 ft | 467 kts | 141° |
| 2026-05-08 02:56 | 37.69170 | -117.56779 | 36919 ft | 467 kts | 142° |
| 2026-05-08 02:57 | 37.64044 | -117.51741 | 36915 ft | 467 kts | 142° |
| 2026-05-08 02:57 | 37.58916 | -117.46730 | 36926 ft | 467 kts | 142° |
| 2026-05-08 02:58 | 37.53800 | -117.41742 | 36918 ft | 469 kts | 142° |
| 2026-05-08 02:58 | 37.48641 | -117.36720 | 36920 ft | 468 kts | 142° |
| 2026-05-08 02:59 | 37.43481 | -117.31706 | 36929 ft | 468 kts | 142° |
| 2026-05-08 02:59 | 37.38324 | -117.26716 | 36926 ft | 469 kts | 143° |
| 2026-05-08 03:00 | 37.33121 | -117.21780 | 36921 ft | 469 kts | 143° |
| 2026-05-08 03:00 | 37.27882 | -117.16903 | 36921 ft | 469 kts | 147° |
| 2026-05-08 03:01 | 37.22444 | -117.12366 | 36920 ft | 470 kts | 146° |
| 2026-05-08 03:01 | 37.17032 | -117.07792 | 36907 ft | 470 kts | 146° |
| 2026-05-08 03:02 | 37.11610 | -117.03214 | 36897 ft | 470 kts | 146° |
| 2026-05-08 03:02 | 37.06185 | -116.98641 | 36886 ft | 470 kts | 146° |
| 2026-05-08 03:03 | 37.00761 | -116.94076 | 36886 ft | 470 kts | 146° |
| 2026-05-08 03:03 | 36.95353 | -116.89533 | 36873 ft | 469 kts | 146° |
| 2026-05-08 03:04 | 36.89929 | -116.84984 | 36869 ft | 470 kts | 146° |
| 2026-05-08 03:04 | 36.84532 | -116.80468 | 36858 ft | 471 kts | 146° |
| 2026-05-08 03:05 | 36.79056 | -116.75891 | 36853 ft | 470 kts | 146° |
| 2026-05-08 03:05 | 36.73628 | -116.71364 | 36854 ft | 470 kts | 146° |
| 2026-05-08 03:06 | 36.68185 | -116.66831 | 36833 ft | 470 kts | 146° |
| 2026-05-08 03:06 | 36.62857 | -116.62218 | 36812 ft | 468 kts | 136° |
| 2026-05-08 03:06 | 36.60761 | -116.59170 | 36815 ft | 463 kts | 120° |
| 2026-05-08 03:07 | 36.59201 | -116.55662 | 36848 ft | 464 kts | 116° |
| 2026-05-08 03:07 | 36.56239 | -116.48503 | 36839 ft | 466 kts | 115° |
| 2026-05-08 03:08 | 36.53339 | -116.41296 | 36833 ft | 466 kts | 115° |
| 2026-05-08 03:08 | 36.50454 | -116.34093 | 36843 ft | 465 kts | 115° |
| 2026-05-08 03:09 | 36.47578 | -116.26928 | 36840 ft | 464 kts | 115° |
| 2026-05-08 03:09 | 36.44691 | -116.19752 | 36852 ft | 465 kts | 115° |
| 2026-05-08 03:10 | 36.41796 | -116.12573 | 36877 ft | 465 kts | 115° |
| 2026-05-08 03:10 | 36.38898 | -116.05401 | 36870 ft | 465 kts | 115° |
| 2026-05-08 03:11 | 36.36000 | -115.98245 | 36900 ft | 465 kts | 115° |
| 2026-05-08 03:11 | 36.33091 | -115.91079 | 36908 ft | 466 kts | 114° |
| 2026-05-08 03:12 | 36.30193 | -115.83955 | 36933 ft | 466 kts | 115° |
| 2026-05-08 03:12 | 36.27269 | -115.76782 | 36936 ft | 466 kts | 115° |
| 2026-05-08 03:13 | 36.24346 | -115.69630 | 36936 ft | 466 kts | 115° |
| 2026-05-08 03:13 | 36.21417 | -115.62476 | 36966 ft | 465 kts | 115° |
| 2026-05-08 03:14 | 36.18489 | -115.55342 | 36950 ft | 464 kts | 115° |
| 2026-05-08 03:14 | 36.15556 | -115.48211 | 36951 ft | 465 kts | 115° |
| 2026-05-08 03:15 | 36.12627 | -115.41105 | 36952 ft | 465 kts | 115° |
| 2026-05-08 03:15 | 36.09688 | -115.33990 | 36919 ft | 465 kts | 115° |
| 2026-05-08 03:16 | 36.06747 | -115.26886 | 36926 ft | 463 kts | 115° |
| 2026-05-08 03:16 | 36.03806 | -115.19797 | 36925 ft | 463 kts | 115° |
| 2026-05-08 03:17 | 36.00866 | -115.12726 | 36961 ft | 463 kts | 115° |
| 2026-05-08 03:17 | 35.97917 | -115.05650 | 36962 ft | 464 kts | 115° |
| 2026-05-08 03:18 | 35.94961 | -114.98570 | 36916 ft | 464 kts | 115° |
| 2026-05-08 03:18 | 35.92005 | -114.91505 | 36916 ft | 463 kts | 115° |
| 2026-05-08 03:19 | 35.89053 | -114.84467 | 36917 ft | 463 kts | 115° |
| 2026-05-08 03:19 | 35.86091 | -114.77420 | 36913 ft | 463 kts | 115° |
| 2026-05-08 03:20 | 35.83125 | -114.70377 | 36818 ft | 463 kts | 115° |
| 2026-05-08 03:20 | 35.80175 | -114.63387 | 36807 ft | 463 kts | 115° |
| 2026-05-08 03:21 | 35.77205 | -114.56367 | 36806 ft | 463 kts | 115° |
| 2026-05-08 03:21 | 35.74225 | -114.49337 | 36809 ft | 463 kts | 115° |
| 2026-05-08 03:22 | 35.71242 | -114.42314 | 36806 ft | 463 kts | 115° |
| 2026-05-08 03:22 | 35.68253 | -114.35293 | 36828 ft | 463 kts | 115° |
| 2026-05-08 03:23 | 35.65270 | -114.28298 | 36823 ft | 463 kts | 115° |
| 2026-05-08 03:23 | 35.62275 | -114.21291 | 36841 ft | 463 kts | 115° |
| 2026-05-08 03:24 | 35.59283 | -114.14304 | 36808 ft | 462 kts | 115° |
| 2026-05-08 03:24 | 35.56288 | -114.07323 | 36878 ft | 463 kts | 115° |
| 2026-05-08 03:25 | 35.53286 | -114.00339 | 36914 ft | 462 kts | 115° |
| 2026-05-08 03:25 | 35.50171 | -113.93427 | 36930 ft | 464 kts | 121° |
| 2026-05-08 03:26 | 35.46626 | -113.86794 | 36948 ft | 464 kts | 120° |
| 2026-05-08 03:26 | 35.43071 | -113.80203 | 36959 ft | 464 kts | 120° |
| 2026-05-08 03:27 | 35.39503 | -113.73609 | 36975 ft | 464 kts | 120° |
| 2026-05-08 03:27 | 35.35954 | -113.67064 | 36949 ft | 464 kts | 120° |
| 2026-05-08 03:28 | 35.32374 | -113.60476 | 36929 ft | 465 kts | 120° |
| 2026-05-08 03:28 | 35.28798 | -113.53903 | 36908 ft | 464 kts | 120° |
| 2026-05-08 03:29 | 35.25224 | -113.47348 | 36425 ft | 461 kts | 120° |
| 2026-05-08 03:29 | 35.23434 | -113.44070 | 35515 ft | 466 kts | 120° |
| 2026-05-08 03:29 | 35.21631 | -113.40768 | 34726 ft | 469 kts | 120° |
| 2026-05-08 03:29 | 35.20403 | -113.38526 | 34221 ft | 469 kts | 120° |
| 2026-05-08 03:30 | 35.16766 | -113.31878 | 32578 ft | 472 kts | 120° |
| 2026-05-08 03:30 | 35.13113 | -113.25181 | 30928 ft | 474 kts | 120° |
| 2026-05-08 03:31 | 35.09450 | -113.18480 | 29191 ft | 476 kts | 120° |
| 2026-05-08 03:31 | 35.05826 | -113.11899 | 28364 ft | 457 kts | 120° |
| 2026-05-08 03:32 | 35.04069 | -113.08717 | 28018 ft | 448 kts | 120° |
| 2026-05-08 03:32 | 35.02341 | -113.05591 | 27645 ft | 440 kts | 120° |
| 2026-05-08 03:32 | 35.00646 | -113.02527 | 27259 ft | 433 kts | 120° |